sensor_id;sensor_type;location;lat;lon;timestamp;temperature;humidity
4811;DHT22;2419;51.276;6.472;2024-03-08T00:00:14;3.40;99.90
4811;DHT22;2419;51.276;6.472;2024-03-08T00:02:46;3.40;99.90
4811;DHT22;2419;51.276;6.472;2024-03-08T00:05:15;3.40;99.90
4811;DHT22;2419;51.276;6.472;2024-03-08T00:07:45;3.40;99.90
4811;DHT22;2419;51.276;6.472;2024-03-08T00:10:13;3.30;99.90
4811;DHT22;2419;51.276;6.472;2024-03-08T00:12:43;3.30;99.90
4811;DHT22;2419;51.276;6.472;2024-03-08T00:15:13;3.30;99.90
4811;DHT22;2419;51.276;6.472;2024-03-08T00:17:45;3.20;99.90
4811;DHT22;2419;51.276;6.472;2024-03-08T00:20:15;3.10;99.90
4811;DHT22;2419;51.276;6.472;2024-03-08T00:22:44;3.10;99.90
4811;DHT22;2419;51.276;6.472;2024-03-08T00:25:12;3.10;99.90
4811;DHT22;2419;51.276;6.472;2024-03-08T00:27:41;3.00;99.90
4811;DHT22;2419;51.276;6.472;2024-03-08T00:30:10;2.90;99.90
4811;DHT22;2419;51.276;6.472;2024-03-08T00:32:40;2.90;99.90
4811;DHT22;2419;51.276;6.472;2024-03-08T00:35:10;2.90;99.90
4811;DHT22;2419;51.276;6.472;2024-03-08T00:37:39;2.90;99.90
4811;DHT22;2419;51.276;6.472;2024-03-08T00:40:09;2.80;99.90
4811;DHT22;2419;51.276;6.472;2024-03-08T00:42:37;2.70;99.90
4811;DHT22;2419;51.276;6.472;2024-03-08T00:45:07;2.70;99.90
4811;DHT22;2419;51.276;6.472;2024-03-08T00:47:37;2.70;99.90
4811;DHT22;2419;51.276;6.472;2024-03-08T00:50:06;2.70;99.90
4811;DHT22;2419;51.276;6.472;2024-03-08T00:52:37;2.70;99.90
4811;DHT22;2419;51.276;6.472;2024-03-08T00:55:05;2.70;99.90
4811;DHT22;2419;51.276;6.472;2024-03-08T00:57:34;2.60;99.90
4811;DHT22;2419;51.276;6.472;2024-03-08T01:00:03;2.60;99.90
4811;DHT22;2419;51.276;6.472;2024-03-08T01:02:32;2.70;99.90
4811;DHT22;2419;51.276;6.472;2024-03-08T01:05:03;2.70;99.90
4811;DHT22;2419;51.276;6.472;2024-03-08T01:07:34;2.70;99.90
4811;DHT22;2419;51.276;6.472;2024-03-08T01:10:04;2.60;99.90
4811;DHT22;2419;51.276;6.472;2024-03-08T01:12:36;2.60;99.90
4811;DHT22;2419;51.276;6.472;2024-03-08T01:15:05;2.60;99.90
4811;DHT22;2419;51.276;6.472;2024-03-08T01:17:34;2.50;99.90
4811;DHT22;2419;51.276;6.472;2024-03-08T01:20:03;2.50;99.90
4811;DHT22;2419;51.276;6.472;2024-03-08T01:22:31;2.50;99.90
4811;DHT22;2419;51.276;6.472;2024-03-08T01:24:59;2.30;99.90
4811;DHT22;2419;51.276;6.472;2024-03-08T01:27:28;2.40;99.90
4811;DHT22;2419;51.276;6.472;2024-03-08T01:29:55;2.40;99.90
4811;DHT22;2419;51.276;6.472;2024-03-08T01:32:25;2.40;99.90
4811;DHT22;2419;51.276;6.472;2024-03-08T01:34:53;2.40;99.90
4811;DHT22;2419;51.276;6.472;2024-03-08T01:37:21;2.50;99.90
4811;DHT22;2419;51.276;6.472;2024-03-08T01:39:49;2.50;99.90
4811;DHT22;2419;51.276;6.472;2024-03-08T01:42:17;2.50;99.90
4811;DHT22;2419;51.276;6.472;2024-03-08T01:44:46;2.50;99.90
4811;DHT22;2419;51.276;6.472;2024-03-08T01:47:14;2.60;99.90
4811;DHT22;2419;51.276;6.472;2024-03-08T01:49:43;2.50;99.90
4811;DHT22;2419;51.276;6.472;2024-03-08T01:52:11;2.40;99.90
4811;DHT22;2419;51.276;6.472;2024-03-08T01:54:40;2.40;99.90
4811;DHT22;2419;51.276;6.472;2024-03-08T01:57:08;2.40;99.90
4811;DHT22;2419;51.276;6.472;2024-03-08T01:59:36;2.30;99.90
4811;DHT22;2419;51.276;6.472;2024-03-08T02:02:06;2.30;99.90
4811;DHT22;2419;51.276;6.472;2024-03-08T02:04:37;2.40;99.90
4811;DHT22;2419;51.276;6.472;2024-03-08T02:07:05;2.40;99.90
4811;DHT22;2419;51.276;6.472;2024-03-08T02:09:37;2.40;99.90
4811;DHT22;2419;51.276;6.472;2024-03-08T02:12:07;2.30;99.90
4811;DHT22;2419;51.276;6.472;2024-03-08T02:14:38;2.30;99.90
4811;DHT22;2419;51.276;6.472;2024-03-08T02:17:08;2.40;99.90
4811;DHT22;2419;51.276;6.472;2024-03-08T02:19:36;2.30;99.90
4811;DHT22;2419;51.276;6.472;2024-03-08T02:22:06;2.30;99.90
4811;DHT22;2419;51.276;6.472;2024-03-08T02:24:34;2.30;99.90
4811;DHT22;2419;51.276;6.472;2024-03-08T02:27:03;2.40;99.90
4811;DHT22;2419;51.276;6.472;2024-03-08T02:29:33;2.30;99.90
4811;DHT22;2419;51.276;6.472;2024-03-08T02:32:01;2.20;99.90
4811;DHT22;2419;51.276;6.472;2024-03-08T02:34:30;2.20;99.90
4811;DHT22;2419;51.276;6.472;2024-03-08T02:36:59;2.20;99.90
4811;DHT22;2419;51.276;6.472;2024-03-08T02:39:28;2.30;99.90
4811;DHT22;2419;51.276;6.472;2024-03-08T02:41:55;2.30;99.90
4811;DHT22;2419;51.276;6.472;2024-03-08T02:44:23;2.30;99.90
4811;DHT22;2419;51.276;6.472;2024-03-08T02:46:51;2.30;99.90
4811;DHT22;2419;51.276;6.472;2024-03-08T02:49:22;2.20;99.90
4811;DHT22;2419;51.276;6.472;2024-03-08T02:51:50;2.20;99.90
4811;DHT22;2419;51.276;6.472;2024-03-08T02:54:18;2.20;99.90
4811;DHT22;2419;51.276;6.472;2024-03-08T02:56:47;2.10;99.90
4811;DHT22;2419;51.276;6.472;2024-03-08T02:59:17;2.10;99.90
4811;DHT22;2419;51.276;6.472;2024-03-08T03:01:45;2.10;99.90
4811;DHT22;2419;51.276;6.472;2024-03-08T03:04:13;2.10;99.90
4811;DHT22;2419;51.276;6.472;2024-03-08T03:06:41;2.10;99.90
4811;DHT22;2419;51.276;6.472;2024-03-08T03:09:09;2.10;99.90
4811;DHT22;2419;51.276;6.472;2024-03-08T03:11:38;2.00;99.90
4811;DHT22;2419;51.276;6.472;2024-03-08T03:14:08;2.00;99.90
4811;DHT22;2419;51.276;6.472;2024-03-08T03:16:36;2.00;99.90
4811;DHT22;2419;51.276;6.472;2024-03-08T03:19:04;2.00;99.90
4811;DHT22;2419;51.276;6.472;2024-03-08T03:21:32;2.00;99.90
4811;DHT22;2419;51.276;6.472;2024-03-08T03:24:03;2.00;99.90
4811;DHT22;2419;51.276;6.472;2024-03-08T03:26:31;2.10;99.90
4811;DHT22;2419;51.276;6.472;2024-03-08T03:29:00;2.00;99.90
4811;DHT22;2419;51.276;6.472;2024-03-08T03:31:31;1.90;99.90
4811;DHT22;2419;51.276;6.472;2024-03-08T03:33:59;1.90;99.90
4811;DHT22;2419;51.276;6.472;2024-03-08T03:36:29;1.80;99.90
4811;DHT22;2419;51.276;6.472;2024-03-08T03:38:58;1.70;99.90
4811;DHT22;2419;51.276;6.472;2024-03-08T03:41:37;1.70;99.90
4811;DHT22;2419;51.276;6.472;2024-03-08T03:44:05;1.80;99.90
4811;DHT22;2419;51.276;6.472;2024-03-08T03:46:35;1.80;99.90
4811;DHT22;2419;51.276;6.472;2024-03-08T03:49:03;1.80;99.90
4811;DHT22;2419;51.276;6.472;2024-03-08T03:51:31;1.70;99.90
4811;DHT22;2419;51.276;6.472;2024-03-08T03:53:59;1.80;99.90
4811;DHT22;2419;51.276;6.472;2024-03-08T03:56:30;1.80;99.90
4811;DHT22;2419;51.276;6.472;2024-03-08T03:58:58;1.70;99.90
4811;DHT22;2419;51.276;6.472;2024-03-08T04:01:26;1.70;99.90
4811;DHT22;2419;51.276;6.472;2024-03-08T04:03:57;1.70;99.90
4811;DHT22;2419;51.276;6.472;2024-03-08T04:06:25;1.60;99.90
4811;DHT22;2419;51.276;6.472;2024-03-08T04:08:53;1.60;99.90
4811;DHT22;2419;51.276;6.472;2024-03-08T04:11:22;1.60;99.90
4811;DHT22;2419;51.276;6.472;2024-03-08T04:13:50;1.60;99.90
4811;DHT22;2419;51.276;6.472;2024-03-08T04:16:19;1.50;99.90
4811;DHT22;2419;51.276;6.472;2024-03-08T04:18:47;1.50;99.90
4811;DHT22;2419;51.276;6.472;2024-03-08T04:21:17;1.40;99.90
4811;DHT22;2419;51.276;6.472;2024-03-08T04:23:46;1.50;99.90
4811;DHT22;2419;51.276;6.472;2024-03-08T04:26:14;1.50;99.90
4811;DHT22;2419;51.276;6.472;2024-03-08T04:28:45;1.50;99.90
4811;DHT22;2419;51.276;6.472;2024-03-08T04:31:13;1.50;99.90
4811;DHT22;2419;51.276;6.472;2024-03-08T04:33:42;1.50;99.90
4811;DHT22;2419;51.276;6.472;2024-03-08T04:36:11;1.40;99.90
4811;DHT22;2419;51.276;6.472;2024-03-08T04:38:41;1.40;99.90
4811;DHT22;2419;51.276;6.472;2024-03-08T04:41:10;1.40;99.90
4811;DHT22;2419;51.276;6.472;2024-03-08T04:43:38;1.40;99.90
4811;DHT22;2419;51.276;6.472;2024-03-08T04:46:06;1.30;99.90
4811;DHT22;2419;51.276;6.472;2024-03-08T04:48:35;1.30;99.90
4811;DHT22;2419;51.276;6.472;2024-03-08T04:51:04;1.30;99.90
4811;DHT22;2419;51.276;6.472;2024-03-08T04:53:32;1.20;99.90
4811;DHT22;2419;51.276;6.472;2024-03-08T04:56:03;1.20;99.90
4811;DHT22;2419;51.276;6.472;2024-03-08T04:58:33;1.20;99.90
4811;DHT22;2419;51.276;6.472;2024-03-08T05:01:01;1.20;99.90
4811;DHT22;2419;51.276;6.472;2024-03-08T05:03:29;1.20;99.90
4811;DHT22;2419;51.276;6.472;2024-03-08T05:05:57;1.30;99.90
4811;DHT22;2419;51.276;6.472;2024-03-08T05:08:26;1.30;99.90
4811;DHT22;2419;51.276;6.472;2024-03-08T05:10:54;1.30;99.90
4811;DHT22;2419;51.276;6.472;2024-03-08T05:13:23;1.30;99.90
4811;DHT22;2419;51.276;6.472;2024-03-08T05:15:51;1.20;99.90
4811;DHT22;2419;51.276;6.472;2024-03-08T05:18:21;1.20;99.90
4811;DHT22;2419;51.276;6.472;2024-03-08T05:20:49;1.20;99.90
4811;DHT22;2419;51.276;6.472;2024-03-08T05:23:18;1.20;99.90
4811;DHT22;2419;51.276;6.472;2024-03-08T05:25:47;1.30;99.90
4811;DHT22;2419;51.276;6.472;2024-03-08T05:28:15;1.30;99.90
4811;DHT22;2419;51.276;6.472;2024-03-08T05:30:44;1.30;99.90
4811;DHT22;2419;51.276;6.472;2024-03-08T05:33:13;1.30;99.90
4811;DHT22;2419;51.276;6.472;2024-03-08T05:35:41;1.30;99.90
4811;DHT22;2419;51.276;6.472;2024-03-08T05:38:10;1.30;99.90
4811;DHT22;2419;51.276;6.472;2024-03-08T05:40:39;1.30;99.90
4811;DHT22;2419;51.276;6.472;2024-03-08T05:43:10;1.30;99.90
4811;DHT22;2419;51.276;6.472;2024-03-08T05:45:38;1.30;99.90
4811;DHT22;2419;51.276;6.472;2024-03-08T05:48:08;1.30;99.90
4811;DHT22;2419;51.276;6.472;2024-03-08T05:50:36;1.20;99.90
4811;DHT22;2419;51.276;6.472;2024-03-08T05:53:05;1.20;99.90
4811;DHT22;2419;51.276;6.472;2024-03-08T05:55:34;1.20;99.90
4811;DHT22;2419;51.276;6.472;2024-03-08T05:58:02;1.30;99.90
4811;DHT22;2419;51.276;6.472;2024-03-08T06:00:30;1.30;99.90
4811;DHT22;2419;51.276;6.472;2024-03-08T06:02:58;1.30;99.90
4811;DHT22;2419;51.276;6.472;2024-03-08T06:05:28;1.30;99.90
4811;DHT22;2419;51.276;6.472;2024-03-08T06:07:56;1.30;99.90
4811;DHT22;2419;51.276;6.472;2024-03-08T06:10:24;1.30;99.90
4811;DHT22;2419;51.276;6.472;2024-03-08T06:12:52;1.30;99.90
4811;DHT22;2419;51.276;6.472;2024-03-08T06:15:21;1.40;99.90
4811;DHT22;2419;51.276;6.472;2024-03-08T06:17:49;1.40;99.90
4811;DHT22;2419;51.276;6.472;2024-03-08T06:20:19;1.50;99.90
4811;DHT22;2419;51.276;6.472;2024-03-08T06:22:54;1.50;99.90
4811;DHT22;2419;51.276;6.472;2024-03-08T06:25:22;1.60;99.90
4811;DHT22;2419;51.276;6.472;2024-03-08T06:27:50;1.60;99.90
4811;DHT22;2419;51.276;6.472;2024-03-08T06:30:19;1.60;99.90
4811;DHT22;2419;51.276;6.472;2024-03-08T06:32:48;1.60;99.90
4811;DHT22;2419;51.276;6.472;2024-03-08T06:35:17;1.70;99.90
4811;DHT22;2419;51.276;6.472;2024-03-08T06:37:47;1.90;99.90
4811;DHT22;2419;51.276;6.472;2024-03-08T06:40:16;2.20;99.90
4811;DHT22;2419;51.276;6.472;2024-03-08T06:42:44;2.50;99.90
4811;DHT22;2419;51.276;6.472;2024-03-08T06:45:13;2.70;99.90
4811;DHT22;2419;51.276;6.472;2024-03-08T06:47:46;3.00;99.90
4811;DHT22;2419;51.276;6.472;2024-03-08T06:50:14;3.30;99.90
4811;DHT22;2419;51.276;6.472;2024-03-08T06:52:43;3.60;99.90
4811;DHT22;2419;51.276;6.472;2024-03-08T06:55:11;4.30;99.90
4811;DHT22;2419;51.276;6.472;2024-03-08T06:57:41;4.60;99.90
4811;DHT22;2419;51.276;6.472;2024-03-08T07:00:10;4.90;99.90
4811;DHT22;2419;51.276;6.472;2024-03-08T07:02:40;5.00;99.90
4811;DHT22;2419;51.276;6.472;2024-03-08T07:05:08;5.10;99.90
4811;DHT22;2419;51.276;6.472;2024-03-08T07:07:38;4.60;99.90
4811;DHT22;2419;51.276;6.472;2024-03-08T07:10:08;4.50;99.90
4811;DHT22;2419;51.276;6.472;2024-03-08T07:12:38;3.90;99.90
4811;DHT22;2419;51.276;6.472;2024-03-08T07:15:07;3.60;99.90
4811;DHT22;2419;51.276;6.472;2024-03-08T07:17:40;3.40;99.90
4811;DHT22;2419;51.276;6.472;2024-03-08T07:20:10;3.40;99.90
4811;DHT22;2419;51.276;6.472;2024-03-08T07:22:39;3.70;99.90
4811;DHT22;2419;51.276;6.472;2024-03-08T07:25:09;4.40;99.90
4811;DHT22;2419;51.276;6.472;2024-03-08T07:27:48;5.10;99.90
4811;DHT22;2419;51.276;6.472;2024-03-08T07:30:18;6.10;99.90
4811;DHT22;2419;51.276;6.472;2024-03-08T07:33:00;6.50;99.90
4811;DHT22;2419;51.276;6.472;2024-03-08T07:35:29;6.70;99.90
4811;DHT22;2419;51.276;6.472;2024-03-08T07:37:58;6.50;99.90
4811;DHT22;2419;51.276;6.472;2024-03-08T07:40:26;6.90;99.90
4811;DHT22;2419;51.276;6.472;2024-03-08T07:42:55;7.20;99.90
4811;DHT22;2419;51.276;6.472;2024-03-08T07:45:24;7.50;99.90
4811;DHT22;2419;51.276;6.472;2024-03-08T07:47:52;7.80;99.90
4811;DHT22;2419;51.276;6.472;2024-03-08T07:50:22;8.70;99.90
4811;DHT22;2419;51.276;6.472;2024-03-08T07:52:50;8.70;99.90
4811;DHT22;2419;51.276;6.472;2024-03-08T07:55:19;9.50;99.80
4811;DHT22;2419;51.276;6.472;2024-03-08T07:57:47;9.60;98.30
4811;DHT22;2419;51.276;6.472;2024-03-08T08:00:16;9.90;98.70
4811;DHT22;2419;51.276;6.472;2024-03-08T08:02:46;10.20;97.60
4811;DHT22;2419;51.276;6.472;2024-03-08T08:05:16;10.30;97.00
4811;DHT22;2419;51.276;6.472;2024-03-08T08:07:45;10.30;96.80
4811;DHT22;2419;51.276;6.472;2024-03-08T08:10:18;10.60;96.50
4811;DHT22;2419;51.276;6.472;2024-03-08T08:12:49;10.80;95.50
4811;DHT22;2419;51.276;6.472;2024-03-08T08:15:17;10.80;95.70
4811;DHT22;2419;51.276;6.472;2024-03-08T08:17:47;10.30;96.10
4811;DHT22;2419;51.276;6.472;2024-03-08T08:20:15;10.10;96.70
4811;DHT22;2419;51.276;6.472;2024-03-08T08:22:45;10.00;97.00
4811;DHT22;2419;51.276;6.472;2024-03-08T08:25:15;9.60;97.40
4811;DHT22;2419;51.276;6.472;2024-03-08T08:27:47;9.20;97.40
4811;DHT22;2419;51.276;6.472;2024-03-08T08:30:15;9.40;97.50
4811;DHT22;2419;51.276;6.472;2024-03-08T08:32:43;9.50;98.10
4811;DHT22;2419;51.276;6.472;2024-03-08T08:35:15;10.10;97.70
4811;DHT22;2419;51.276;6.472;2024-03-08T08:37:45;9.70;97.80
4811;DHT22;2419;51.276;6.472;2024-03-08T08:40:14;10.00;97.20
4811;DHT22;2419;51.276;6.472;2024-03-08T08:42:45;10.00;97.50
4811;DHT22;2419;51.276;6.472;2024-03-08T08:45:16;9.90;96.50
4811;DHT22;2419;51.276;6.472;2024-03-08T08:47:51;9.90;95.60
4811;DHT22;2419;51.276;6.472;2024-03-08T08:50:20;9.60;96.50
4811;DHT22;2419;51.276;6.472;2024-03-08T08:52:51;9.50;96.70
4811;DHT22;2419;51.276;6.472;2024-03-08T08:55:20;9.70;97.10
4811;DHT22;2419;51.276;6.472;2024-03-08T08:57:52;9.80;97.20
4811;DHT22;2419;51.276;6.472;2024-03-08T09:00:20;10.00;95.80
4811;DHT22;2419;51.276;6.472;2024-03-08T09:02:50;10.10;95.30
4811;DHT22;2419;51.276;6.472;2024-03-08T09:05:23;10.20;95.20
4811;DHT22;2419;51.276;6.472;2024-03-08T09:07:51;10.00;96.10
4811;DHT22;2419;51.276;6.472;2024-03-08T09:10:20;9.80;95.70
4811;DHT22;2419;51.276;6.472;2024-03-08T09:12:49;9.80;96.00
4811;DHT22;2419;51.276;6.472;2024-03-08T09:15:17;10.30;95.10
4811;DHT22;2419;51.276;6.472;2024-03-08T09:17:47;10.50;94.60
4811;DHT22;2419;51.276;6.472;2024-03-08T09:20:15;11.00;95.00
4811;DHT22;2419;51.276;6.472;2024-03-08T09:22:45;10.50;95.00
4811;DHT22;2419;51.276;6.472;2024-03-08T09:25:14;10.20;94.80
4811;DHT22;2419;51.276;6.472;2024-03-08T09:27:42;10.00;94.60
4811;DHT22;2419;51.276;6.472;2024-03-08T09:30:11;10.20;94.80
4811;DHT22;2419;51.276;6.472;2024-03-08T09:32:40;10.70;93.90
4811;DHT22;2419;51.276;6.472;2024-03-08T09:35:10;11.00;92.70
4811;DHT22;2419;51.276;6.472;2024-03-08T09:37:38;10.60;93.00
4811;DHT22;2419;51.276;6.472;2024-03-08T09:40:08;10.70;93.70
4811;DHT22;2419;51.276;6.472;2024-03-08T09:42:37;11.30;92.80
4811;DHT22;2419;51.276;6.472;2024-03-08T09:45:09;11.60;90.70
4811;DHT22;2419;51.276;6.472;2024-03-08T09:47:39;11.40;90.50
4811;DHT22;2419;51.276;6.472;2024-03-08T09:50:09;10.70;90.90
4811;DHT22;2419;51.276;6.472;2024-03-08T09:52:39;10.80;90.70
4811;DHT22;2419;51.276;6.472;2024-03-08T09:55:10;10.80;90.50
4811;DHT22;2419;51.276;6.472;2024-03-08T09:57:39;10.30;90.60
4811;DHT22;2419;51.276;6.472;2024-03-08T10:00:13;10.00;91.00
4811;DHT22;2419;51.276;6.472;2024-03-08T10:02:51;10.20;93.40
4811;DHT22;2419;51.276;6.472;2024-03-08T10:05:20;10.90;91.20
4811;DHT22;2419;51.276;6.472;2024-03-08T10:07:49;11.30;90.90
4811;DHT22;2419;51.276;6.472;2024-03-08T10:10:19;11.70;89.80
4811;DHT22;2419;51.276;6.472;2024-03-08T10:12:48;11.90;89.00
4811;DHT22;2419;51.276;6.472;2024-03-08T10:15:17;11.90;85.70
4811;DHT22;2419;51.276;6.472;2024-03-08T10:17:46;11.20;84.90
4811;DHT22;2419;51.276;6.472;2024-03-08T10:20:16;11.00;87.40
4811;DHT22;2419;51.276;6.472;2024-03-08T10:22:44;11.10;87.40
4811;DHT22;2419;51.276;6.472;2024-03-08T10:25:35;11.60;89.20
4811;DHT22;2419;51.276;6.472;2024-03-08T10:28:04;12.20;83.10
4811;DHT22;2419;51.276;6.472;2024-03-08T10:30:32;12.00;81.90
4811;DHT22;2419;51.276;6.472;2024-03-08T10:33:00;12.50;80.70
4811;DHT22;2419;51.276;6.472;2024-03-08T10:35:32;12.90;80.00
4811;DHT22;2419;51.276;6.472;2024-03-08T10:38:01;13.40;80.70
4811;DHT22;2419;51.276;6.472;2024-03-08T10:40:38;13.60;73.80
4811;DHT22;2419;51.276;6.472;2024-03-08T10:43:11;13.30;73.00
4811;DHT22;2419;51.276;6.472;2024-03-08T10:45:46;12.50;74.00
4811;DHT22;2419;51.276;6.472;2024-03-08T10:48:27;12.90;75.20
4811;DHT22;2419;51.276;6.472;2024-03-08T10:51:04;13.40;72.40
4811;DHT22;2419;51.276;6.472;2024-03-08T10:53:34;13.40;71.50
4811;DHT22;2419;51.276;6.472;2024-03-08T10:56:05;13.50;69.70
4811;DHT22;2419;51.276;6.472;2024-03-08T10:58:35;13.70;70.40
4811;DHT22;2419;51.276;6.472;2024-03-08T11:01:04;13.30;68.50
4811;DHT22;2419;51.276;6.472;2024-03-08T11:03:45;13.00;66.60
4811;DHT22;2419;51.276;6.472;2024-03-08T11:06:17;12.80;68.30
4811;DHT22;2419;51.276;6.472;2024-03-08T11:08:49;13.10;67.90
4811;DHT22;2419;51.276;6.472;2024-03-08T11:11:27;12.70;66.80
4811;DHT22;2419;51.276;6.472;2024-03-08T11:14:01;12.90;71.50
4811;DHT22;2419;51.276;6.472;2024-03-08T11:16:39;13.20;71.40
4811;DHT22;2419;51.276;6.472;2024-03-08T11:19:26;13.30;65.70
4811;DHT22;2419;51.276;6.472;2024-03-08T11:22:02;13.10;67.40
4811;DHT22;2419;51.276;6.472;2024-03-08T11:24:37;13.40;64.60
4811;DHT22;2419;51.276;6.472;2024-03-08T11:27:10;13.80;66.20
4811;DHT22;2419;51.276;6.472;2024-03-08T11:29:39;14.70;66.20
4811;DHT22;2419;51.276;6.472;2024-03-08T11:32:08;14.60;63.40
4811;DHT22;2419;51.276;6.472;2024-03-08T11:34:39;14.00;60.20
4811;DHT22;2419;51.276;6.472;2024-03-08T11:37:12;13.50;62.00
4811;DHT22;2419;51.276;6.472;2024-03-08T11:39:47;13.50;62.10
4811;DHT22;2419;51.276;6.472;2024-03-08T11:42:18;13.70;62.60
4811;DHT22;2419;51.276;6.472;2024-03-08T11:44:47;13.10;61.60
4811;DHT22;2419;51.276;6.472;2024-03-08T11:47:15;12.90;64.00
4811;DHT22;2419;51.276;6.472;2024-03-08T11:49:44;13.20;62.30
4811;DHT22;2419;51.276;6.472;2024-03-08T11:52:12;12.60;62.60
4811;DHT22;2419;51.276;6.472;2024-03-08T11:54:49;13.00;66.00
4811;DHT22;2419;51.276;6.472;2024-03-08T11:57:21;13.20;63.50
4811;DHT22;2419;51.276;6.472;2024-03-08T11:59:50;13.30;63.00
4811;DHT22;2419;51.276;6.472;2024-03-08T12:02:23;13.10;63.00
4811;DHT22;2419;51.276;6.472;2024-03-08T12:04:56;13.50;63.20
4811;DHT22;2419;51.276;6.472;2024-03-08T12:07:24;13.30;61.80
4811;DHT22;2419;51.276;6.472;2024-03-08T12:10:14;13.30;62.20
4811;DHT22;2419;51.276;6.472;2024-03-08T12:12:46;13.20;62.50
4811;DHT22;2419;51.276;6.472;2024-03-08T12:15:15;13.30;60.00
4811;DHT22;2419;51.276;6.472;2024-03-08T12:17:45;13.70;62.20
4811;DHT22;2419;51.276;6.472;2024-03-08T12:20:16;13.40;61.20
4811;DHT22;2419;51.276;6.472;2024-03-08T12:22:45;13.20;61.20
4811;DHT22;2419;51.276;6.472;2024-03-08T12:25:14;13.20;60.90
4811;DHT22;2419;51.276;6.472;2024-03-08T12:27:45;13.30;60.80
4811;DHT22;2419;51.276;6.472;2024-03-08T12:30:21;13.40;62.10
4811;DHT22;2419;51.276;6.472;2024-03-08T12:32:53;13.60;63.60
4811;DHT22;2419;51.276;6.472;2024-03-08T12:35:25;13.70;61.10
4811;DHT22;2419;51.276;6.472;2024-03-08T12:37:54;13.00;62.00
4811;DHT22;2419;51.276;6.472;2024-03-08T12:40:28;13.30;62.80
4811;DHT22;2419;51.276;6.472;2024-03-08T12:43:00;13.40;61.10
4811;DHT22;2419;51.276;6.472;2024-03-08T12:45:29;13.50;59.30
4811;DHT22;2419;51.276;6.472;2024-03-08T12:47:57;13.20;60.80
4811;DHT22;2419;51.276;6.472;2024-03-08T12:50:26;12.90;61.60
4811;DHT22;2419;51.276;6.472;2024-03-08T12:52:54;13.10;61.90
4811;DHT22;2419;51.276;6.472;2024-03-08T12:55:22;13.20;61.40
4811;DHT22;2419;51.276;6.472;2024-03-08T12:57:50;13.30;59.90
4811;DHT22;2419;51.276;6.472;2024-03-08T13:00:21;13.10;61.70
4811;DHT22;2419;51.276;6.472;2024-03-08T13:02:50;12.90;60.60
4811;DHT22;2419;51.276;6.472;2024-03-08T13:05:19;12.80;61.40
4811;DHT22;2419;51.276;6.472;2024-03-08T13:07:47;12.80;60.30
4811;DHT22;2419;51.276;6.472;2024-03-08T13:10:16;13.00;62.40
4811;DHT22;2419;51.276;6.472;2024-03-08T13:12:47;13.30;61.40
4811;DHT22;2419;51.276;6.472;2024-03-08T13:15:21;13.30;61.30
4811;DHT22;2419;51.276;6.472;2024-03-08T13:17:49;12.80;59.00
4811;DHT22;2419;51.276;6.472;2024-03-08T13:20:17;12.70;59.90
4811;DHT22;2419;51.276;6.472;2024-03-08T13:22:57;12.80;62.70
4811;DHT22;2419;51.276;6.472;2024-03-08T13:25:28;12.70;61.20
4811;DHT22;2419;51.276;6.472;2024-03-08T13:27:56;12.80;61.30
4811;DHT22;2419;51.276;6.472;2024-03-08T13:30:27;12.90;61.60
4811;DHT22;2419;51.276;6.472;2024-03-08T13:32:57;12.90;60.90
4811;DHT22;2419;51.276;6.472;2024-03-08T13:35:25;12.50;61.10
4811;DHT22;2419;51.276;6.472;2024-03-08T13:37:55;12.70;62.60
4811;DHT22;2419;51.276;6.472;2024-03-08T13:40:23;12.70;61.40
4811;DHT22;2419;51.276;6.472;2024-03-08T13:42:51;12.90;62.20
4811;DHT22;2419;51.276;6.472;2024-03-08T13:45:19;12.80;62.40
4811;DHT22;2419;51.276;6.472;2024-03-08T13:47:53;12.60;61.30
4811;DHT22;2419;51.276;6.472;2024-03-08T13:50:21;12.50;64.00
4811;DHT22;2419;51.276;6.472;2024-03-08T13:52:51;12.20;64.20
4811;DHT22;2419;51.276;6.472;2024-03-08T13:55:22;12.10;63.10
4811;DHT22;2419;51.276;6.472;2024-03-08T13:57:52;12.00;62.30
4811;DHT22;2419;51.276;6.472;2024-03-08T14:00:21;12.00;64.70
4811;DHT22;2419;51.276;6.472;2024-03-08T14:02:53;11.90;63.30
4811;DHT22;2419;51.276;6.472;2024-03-08T14:05:21;11.90;65.50
4811;DHT22;2419;51.276;6.472;2024-03-08T14:07:50;11.90;63.20
4811;DHT22;2419;51.276;6.472;2024-03-08T14:10:21;11.90;64.00
4811;DHT22;2419;51.276;6.472;2024-03-08T14:12:50;12.00;64.90
4811;DHT22;2419;51.276;6.472;2024-03-08T14:15:18;12.00;66.00
4811;DHT22;2419;51.276;6.472;2024-03-08T14:17:53;12.10;65.10
4811;DHT22;2419;51.276;6.472;2024-03-08T14:20:22;12.00;64.00
4811;DHT22;2419;51.276;6.472;2024-03-08T14:22:52;12.00;64.40
4811;DHT22;2419;51.276;6.472;2024-03-08T14:25:22;11.90;63.10
4811;DHT22;2419;51.276;6.472;2024-03-08T14:27:52;12.00;62.40
4811;DHT22;2419;51.276;6.472;2024-03-08T14:30:21;11.90;62.40
4811;DHT22;2419;51.276;6.472;2024-03-08T14:33:03;11.90;66.20
4811;DHT22;2419;51.276;6.472;2024-03-08T14:35:32;12.00;64.20
4811;DHT22;2419;51.276;6.472;2024-03-08T14:38:01;11.90;64.60
4811;DHT22;2419;51.276;6.472;2024-03-08T14:40:29;11.90;63.70
4811;DHT22;2419;51.276;6.472;2024-03-08T14:42:57;11.90;62.40
4811;DHT22;2419;51.276;6.472;2024-03-08T14:45:25;11.90;62.40
4811;DHT22;2419;51.276;6.472;2024-03-08T14:47:54;11.80;62.30
4811;DHT22;2419;51.276;6.472;2024-03-08T14:50:25;11.90;63.00
4811;DHT22;2419;51.276;6.472;2024-03-08T14:52:53;11.90;63.10
4811;DHT22;2419;51.276;6.472;2024-03-08T14:55:21;11.80;63.50
4811;DHT22;2419;51.276;6.472;2024-03-08T14:57:49;11.80;62.80
4811;DHT22;2419;51.276;6.472;2024-03-08T15:00:19;11.70;63.00
4811;DHT22;2419;51.276;6.472;2024-03-08T15:03:01;11.70;62.40
4811;DHT22;2419;51.276;6.472;2024-03-08T15:05:33;11.70;62.80
4811;DHT22;2419;51.276;6.472;2024-03-08T15:08:06;11.70;63.60
4811;DHT22;2419;51.276;6.472;2024-03-08T15:10:39;11.70;62.30
4811;DHT22;2419;51.276;6.472;2024-03-08T15:13:09;11.70;63.10
4811;DHT22;2419;51.276;6.472;2024-03-08T15:15:49;11.60;62.50
4811;DHT22;2419;51.276;6.472;2024-03-08T15:18:23;11.70;63.40
4811;DHT22;2419;51.276;6.472;2024-03-08T15:20:56;11.60;63.70
4811;DHT22;2419;51.276;6.472;2024-03-08T15:23:24;11.70;66.80
4811;DHT22;2419;51.276;6.472;2024-03-08T15:25:52;11.60;68.20
4811;DHT22;2419;51.276;6.472;2024-03-08T15:28:20;11.60;64.90
4811;DHT22;2419;51.276;6.472;2024-03-08T15:30:54;11.40;64.20
4811;DHT22;2419;51.276;6.472;2024-03-08T15:33:32;11.50;64.00
4811;DHT22;2419;51.276;6.472;2024-03-08T15:36:01;11.50;64.60
4811;DHT22;2419;51.276;6.472;2024-03-08T15:38:35;11.50;64.90
4811;DHT22;2419;51.276;6.472;2024-03-08T15:41:03;11.40;65.10
4811;DHT22;2419;51.276;6.472;2024-03-08T15:43:36;11.40;66.40
4811;DHT22;2419;51.276;6.472;2024-03-08T15:46:05;11.30;66.20
4811;DHT22;2419;51.276;6.472;2024-03-08T15:48:34;11.30;66.30
4811;DHT22;2419;51.276;6.472;2024-03-08T15:51:05;11.30;66.60
4811;DHT22;2419;51.276;6.472;2024-03-08T15:53:33;11.30;66.60
4811;DHT22;2419;51.276;6.472;2024-03-08T15:56:02;11.30;66.90
4811;DHT22;2419;51.276;6.472;2024-03-08T15:58:33;11.20;69.90
4811;DHT22;2419;51.276;6.472;2024-03-08T16:01:03;11.20;66.80
4811;DHT22;2419;51.276;6.472;2024-03-08T16:03:33;11.20;67.60
4811;DHT22;2419;51.276;6.472;2024-03-08T16:06:01;11.10;67.30
4811;DHT22;2419;51.276;6.472;2024-03-08T16:08:33;11.10;68.10
4811;DHT22;2419;51.276;6.472;2024-03-08T16:11:04;11.00;67.10
4811;DHT22;2419;51.276;6.472;2024-03-08T16:13:34;11.00;68.80
4811;DHT22;2419;51.276;6.472;2024-03-08T16:16:05;11.00;68.50
4811;DHT22;2419;51.276;6.472;2024-03-08T16:18:33;10.90;69.60
4811;DHT22;2419;51.276;6.472;2024-03-08T16:21:04;11.00;69.80
4811;DHT22;2419;51.276;6.472;2024-03-08T16:23:35;10.90;69.60
4811;DHT22;2419;51.276;6.472;2024-03-08T16:26:04;10.90;69.60